Airfield :
LOGIN :

Register | Disclaimer

   EN    FR    IT 

 










Legend :    VFR   Marginal VFR   IFR   Intensive IFR   Very Intensive IFR
Visi :
Ceiling :
>= 8 km
>= 3000ft
5 to 8 km
1000 to 3000 ft
1500m to 5 km
500 to 1000 ft
800 to 1500m
200 to 500 ft
< 800m
< 200 ft
Symbols :   Thunderstorms  Fog  Heavy snow  Heavy precipitations  Wind > 20 kt
SIGMETs :     Misc.  Thunderstorms  Icing  Turbulence  Mountain Waves  Volcanic Ashes






- Airport Elevation : 219 ft
- IATA code : DNR


LFRD - Dinard

CURRENT METAR :
  • 132200Z AUTO 16006KT 9999 -RA ///TCU 13/13 Q1011 BECMG RA BKN030

EXPIRED METARs :
  • 132130Z AUTO 16006KT 9999 -RA ///TCU 13/13 Q1011 BECMG RA BKN030
  • 132100Z AUTO 18006KT 9999 -RA ///CB 13/13 Q1012 BECMG RA BKN030
  • 132030Z AUTO 18006KT 9999 -RA ///CB 13/12 Q1011 BECMG RA BKN030
  • 132000Z AUTO 19005KT CAVOK 13/12 Q1011 BECMG RA
  • 131930Z AUTO 19005KT CAVOK 13/12 Q1011 BECMG RA

TAF TAF LFRD
Valid from the 13 at 18:00 until the 14 at 18:00 UTC


131700Z 1318/1418 21006KT 9999 BKN030
BECMG 1320/1322 5000 RA
BECMG 1400/1403 VRB05KT
TEMPO 1403/1413 3000 RA BKN005 BKN040CB
BECMG 1410/1412 9999 NSW
TEMPO 1413/1418 3000 SHRA BKN015CB
PROB30
TEMPO 1413/1416 TSRA
BECMG 1413/1415 24010KT
ATIS : +33 2 99 16 81 50



MET'MAP, your aeronautical weather chart ! - Copyright ORBIFLY December 2007 - Disclaimer

ORBIFLY MET'MAP TEAM :

Programming & Development : Alexandra Zaïnal
Concept & Development : Baudouin d'Aumeries
Co-Development & Prog : Marc-Olivier Méhu
Technical & hardware support : Manuel Goepfert

Contact : metmap@orbifly.com




SOURCES & CREDITS :

   NOAA